Time;durP1;ratioP1;P1;durP2;ratioP2;P2;SDS_P1;SDS_P2;PMS_P1;PMS_P2;Temp;Humidity;BMP_temperature;BMP_pressure;BME280_temperature;BME280_humidity;BME280_pressure;Samples;Min_cycle;Max_cycle;Signal;HPM_P1;HPM_P2
2022/11/21 00:00:04;;;;;;;22.38;11.70;;;;;;;-142.75;100.00;77619.63;4987635;28;20355;-68
2022/11/21 00:02:30;;;;;;;18.60;11.17;;;;;;;-142.75;100.00;77639.31;4978554;28;20055;-67
2022/11/21 00:04:55;;;;;;;22.25;12.18;;;;;;;-142.75;100.00;77635.38;4993751;28;20376;-67
2022/11/21 00:07:21;;;;;;;21.40;10.77;;;;;;;-142.75;100.00;77637.34;4986078;28;20338;-67
2022/11/21 00:09:46;;;;;;;20.13;11.48;;;;;;;-142.75;100.00;77627.50;4985785;28;20332;-68
2022/11/21 00:12:12;;;;;;;20.05;10.68;;;;;;;-142.75;100.00;77617.66;4986391;28;20449;-67
2022/11/21 00:14:37;;;;;;;17.63;10.30;;;;;;;-142.75;100.00;77619.63;4999449;28;20371;-67
2022/11/21 00:17:03;;;;;;;18.40;10.82;;;;;;;-142.75;100.00;77633.41;4984898;28;20500;-67
2022/11/21 00:19:28;;;;;;;18.55;10.50;;;;;;;-142.75;100.00;77621.59;4997707;28;20321;-67
2022/11/21 00:21:54;;;;;;;22.58;9.60;;;;;;;-142.75;100.00;77611.75;4992261;28;20425;-67
2022/11/21 00:24:19;;;;;;;15.38;8.50;;;;;;;-142.75;100.00;77597.97;4993420;28;20839;-67
2022/11/21 00:26:44;;;;;;;19.02;9.38;;;;;;;-142.75;100.00;77562.53;4985331;28;20338;-67
2022/11/21 00:29:10;;;;;;;16.50;8.98;;;;;;;-142.75;100.00;77546.78;5003197;28;20344;-67
2022/11/21 00:31:35;;;;;;;15.30;8.68;;;;;;;-142.75;100.00;77546.78;4990430;28;20328;-67
2022/11/21 00:34:01;;;;;;;15.50;9.15;;;;;;;-142.75;100.00;77546.78;4989940;28;20371;-68
2022/11/21 00:36:26;;;;;;;18.83;9.68;;;;;;;-142.75;100.00;77540.88;4997522;28;20294;-67
2022/11/21 00:38:52;;;;;;;17.15;10.02;;;;;;;-142.75;100.00;77570.41;4991402;28;20326;-67
2022/11/21 00:41:17;;;;;;;18.38;10.27;;;;;;;-142.75;100.00;77576.31;4988154;28;20571;-67
2022/11/21 00:43:43;;;;;;;18.92;10.35;;;;;;;-142.75;100.00;77582.22;4990140;28;20341;-67
2022/11/21 00:46:08;;;;;;;16.10;8.90;;;;;;;-142.75;100.00;77572.38;4992333;28;20167;-67
2022/11/21 00:48:34;;;;;;;16.80;9.85;;;;;;;-142.75;100.00;77570.41;4995993;28;20306;-67
2022/11/21 00:50:59;;;;;;;19.90;10.93;;;;;;;-142.75;100.00;77566.47;4990609;28;20095;-68
2022/11/21 00:53:25;;;;;;;17.63;10.00;;;;;;;-142.75;100.00;77592.06;4989775;28;20303;-67
2022/11/21 00:55:50;;;;;;;19.70;10.32;;;;;;;-142.75;100.00;77641.28;4990174;28;20013;-68
2022/11/21 00:58:16;;;;;;;23.95;11.85;;;;;;;-142.75;100.00;77643.25;4986569;28;20314;-67
2022/11/21 01:00:42;;;;;;;20.98;11.57;;;;;;;-142.75;100.00;77645.22;4990664;28;20285;-67
2022/11/21 01:03:07;;;;;;;22.08;12.20;;;;;;;-142.75;100.00;77649.16;4986406;28;20361;-67
2022/11/21 01:05:33;;;;;;;20.95;11.77;;;;;;;-142.75;100.00;77641.28;4985237;28;20194;-67
2022/11/21 01:07:58;;;;;;;24.67;12.25;;;;;;;-142.75;100.00;77637.34;4990869;28;20497;-66
2022/11/21 01:10:24;;;;;;;23.33;11.85;;;;;;;-142.75;100.00;77631.44;4987249;28;20363;-67
2022/11/21 01:12:49;;;;;;;24.33;12.45;;;;;;;-142.75;100.00;77631.44;4996062;28;20436;-67
2022/11/21 01:15:15;;;;;;;23.33;12.68;;;;;;;-142.75;100.00;77631.44;4988136;28;20411;-67
2022/11/21 01:17:41;;;;;;;26.83;13.75;;;;;;;-142.75;100.00;77613.72;4991015;28;20219;-67
2022/11/21 01:20:07;;;;;;;29.00;14.43;;;;;;;-142.75;100.00;77594.03;4989655;28;20346;-67
2022/11/21 01:22:32;;;;;;;30.60;16.02;;;;;;;-142.75;100.00;77603.88;4997031;28;20028;-66
2022/11/21 01:24:58;;;;;;;31.15;15.93;;;;;;;-142.75;100.00;77590.09;4996519;28;20395;-66
2022/11/21 01:27:23;;;;;;;32.42;17.02;;;;;;;-142.75;100.00;77605.84;4993441;28;20309;-66
2022/11/21 01:29:49;;;;;;;32.70;16.42;;;;;;;-142.75;100.00;77582.22;4987255;28;20559;-67
2022/11/21 01:32:14;;;;;;;30.35;16.55;;;;;;;-142.75;100.00;77613.72;5000255;28;20346;-65
2022/11/21 01:34:39;;;;;;;34.30;16.17;;;;;;;-142.75;100.00;77629.47;4986502;28;20326;-66
2022/11/21 01:37:05;;;;;;;33.13;17.25;;;;;;;-142.75;100.00;77639.31;4994851;28;20321;-66
2022/11/21 01:39:30;;;;;;;31.88;17.02;;;;;;;-142.75;100.00;77605.84;4992282;28;20342;-66
2022/11/21 01:41:56;;;;;;;32.97;17.75;;;;;;;-142.75;100.00;77588.13;4986927;28;20425;-67
2022/11/21 01:44:24;;;;;;;32.40;16.58;;;;;;;-142.75;100.00;77615.69;4995193;28;20052;-67
2022/11/21 01:46:51;;;;;;;32.73;17.13;;;;;;;-142.75;100.00;77586.16;4990027;28;20090;-68
2022/11/21 01:49:26;;;;;;;30.60;15.40;;;;;;;-142.75;100.00;77578.28;4991081;28;20297;-67
2022/11/21 01:51:54;;;;;;;33.93;16.10;;;;;;;-142.75;100.00;77590.09;4998684;28;20063;-66
2022/11/21 01:54:38;;;;;;;30.47;16.80;;;;;;;-142.75;100.00;77588.13;4993398;28;20036;-66
2022/11/21 01:57:17;;;;;;;35.43;16.27;;;;;;;-142.75;100.00;77584.19;4988272;28;20097;-66
2022/11/21 02:00:10;;;;;;;31.30;16.73;;;;;;;-142.75;100.00;77592.06;4985575;28;20109;-67
2022/11/21 02:02:46;;;;;;;31.83;17.13;;;;;;;-142.75;100.00;77594.03;4991417;28;20032;-67
2022/11/21 02:05:16;;;;;;;33.85;16.77;;;;;;;-142.75;100.00;77603.88;4995104;28;20537;-66
2022/11/21 02:07:45;;;;;;;33.70;16.33;;;;;;;-142.75;100.00;77609.78;4990095;28;20028;-67
2022/11/21 02:10:12;;;;;;;34.23;17.50;;;;;;;-142.75;100.00;77594.03;4995307;28;20032;-68
2022/11/21 02:12:43;;;;;;;35.58;16.98;;;;;;;-142.75;100.00;77615.69;4994398;28;20591;-64
2022/11/21 02:15:10;;;;;;;35.93;17.10;;;;;;;-142.75;100.00;77601.91;4991615;28;20684;-66
2022/11/21 02:17:35;;;;;;;36.40;15.97;;;;;;;-142.75;100.00;77629.47;4988164;28;20029;-67
2022/11/21 02:20:06;;;;;;;31.52;14.40;;;;;;;-142.75;100.00;77603.88;4994891;28;20355;-67
2022/11/21 02:23:02;;;;;;;31.57;15.73;;;;;;;-142.75;100.00;77605.84;4995188;28;20055;-67
2022/11/21 02:25:34;;;;;;;36.13;16.70;;;;;;;-142.75;100.00;77596.00;4997358;28;20029;-67
2022/11/21 02:28:04;;;;;;;69.67;16.53;;;;;;;-142.75;100.00;77609.78;4995433;28;20028;-67
2022/11/21 02:30:33;;;;;;;32.13;15.10;;;;;;;-142.75;100.00;77613.72;4989676;28;20086;-66
2022/11/21 02:32:59;;;;;;;34.73;15.67;;;;;;;-142.75;100.00;77609.78;4992128;28;20028;-66
2022/11/21 02:35:25;;;;;;;32.90;14.20;;;;;;;-142.75;100.00;77611.75;4989218;28;20025;-67
2022/11/21 02:37:59;;;;;;;28.55;14.60;;;;;;;-142.75;100.00;77597.97;4993766;28;20308;-67
2022/11/21 02:40:30;;;;;;;50.93;15.27;;;;;;;-142.75;100.00;77625.53;4992824;28;20139;-66
2022/11/21 02:42:59;;;;;;;40.03;15.47;;;;;;;-142.75;100.00;77629.47;4992085;28;20147;-67
2022/11/21 02:45:30;;;;;;;52.93;15.87;;;;;;;-142.75;100.00;77625.53;4972303;28;20113;-67
2022/11/21 02:47:56;;;;;;;62.93;15.23;;;;;;;-142.75;100.00;77637.34;5000853;28;20665;-65
2022/11/21 02:50:26;;;;;;;33.05;14.50;;;;;;;-142.75;100.00;77629.47;4994025;28;20024;-67
2022/11/21 02:52:51;;;;;;;37.93;13.83;;;;;;;-142.75;100.00;77629.47;4995874;28;20353;-66
2022/11/21 02:55:16;;;;;;;63.88;15.40;;;;;;;-142.75;100.00;77631.44;4988986;28;20306;-67
2022/11/21 02:57:42;;;;;;;37.80;15.48;;;;;;;-142.75;100.00;77621.59;4990804;28;20330;-67
2022/11/21 03:00:09;;;;;;;67.63;15.60;;;;;;;-142.75;100.00;77613.72;4984446;28;20337;-67
2022/11/21 03:02:36;;;;;;;30.17;15.60;;;;;;;-142.75;100.00;77613.72;4989341;28;20132;-66
2022/11/21 03:05:01;;;;;;;;;;;;;;;-142.75;100.00;77601.91;4983192;28;20067;-66
2022/11/21 03:07:27;;;;;;;40.17;15.53;;;;;;;-142.75;100.00;77609.78;4991725;28;20076;-66
2022/11/21 03:09:53;;;;;;;36.15;15.93;;;;;;;-142.75;100.00;77596.00;4991168;28;20031;-67
2022/11/21 03:12:18;;;;;;;44.40;16.48;;;;;;;-142.75;100.00;77596.00;4992242;28;20286;-67
2022/11/21 03:14:43;;;;;;;30.80;15.88;;;;;;;-142.75;100.00;77605.84;5000113;28;20299;-67
2022/11/21 03:17:09;;;;;;;42.13;16.20;;;;;;;-142.75;100.00;77601.91;4986978;28;20346;-68
2022/11/21 03:19:35;;;;;;;47.45;16.88;;;;;;;-142.75;100.00;77605.84;4989724;28;20483;-67
2022/11/21 03:22:00;;;;;;;41.45;16.52;;;;;;;-142.75;100.00;77617.66;4998685;28;20064;-67
2022/11/21 03:24:25;;;;;;;48.80;16.77;;;;;;;-142.75;100.00;77609.78;4996049;28;20349;-67
2022/11/21 03:26:51;;;;;;;47.60;16.10;;;;;;;-142.75;100.00;77609.78;4986795;28;20324;-68
2022/11/21 03:29:16;;;;;;;31.95;16.13;;;;;;;-142.75;100.00;77615.69;4996165;28;20285;-68
2022/11/21 03:31:42;;;;;;;108.03;16.55;;;;;;;-142.75;100.00;77611.75;4983487;28;20333;-68
2022/11/21 03:34:07;;;;;;;36.20;15.68;;;;;;;-142.75;100.00;77611.75;4996738;28;20460;-67
2022/11/21 03:36:33;;;;;;;35.85;15.43;;;;;;;-142.75;100.00;77605.84;4995526;28;20349;-67
2022/11/21 03:38:59;;;;;;;86.38;14.98;;;;;;;-142.75;100.00;77613.72;4989016;28;20346;-66
2022/11/21 03:41:28;;;;;;;38.28;15.38;;;;;;;-142.75;100.00;77605.84;4993446;28;20029;-67
2022/11/21 03:44:06;;;;;;;40.67;14.63;;;;;;;-142.75;100.00;77609.78;4994002;28;20032;-67
2022/11/21 03:46:34;;;;;;;33.40;15.80;;;;;;;-142.75;100.00;77609.78;4988038;28;20028;-66
2022/11/21 03:48:59;;;;;;;73.33;15.30;;;;;;;-142.75;100.00;77625.53;4992169;28;20036;-67
2022/11/21 03:51:25;;;;;;;32.92;14.30;;;;;;;-142.75;100.00;77615.69;4986433;28;20079;-68
2022/11/21 03:53:51;;;;;;;26.80;13.07;;;;;;;-142.75;100.00;77637.34;4998832;28;20064;-67
2022/11/21 03:56:17;;;;;;;57.08;14.98;;;;;;;-142.75;100.00;77641.28;4986561;28;20341;-68
2022/11/21 03:58:42;;;;;;;32.17;13.05;;;;;;;-142.75;100.00;77647.19;4993033;28;20294;-66
2022/11/21 04:01:08;;;;;;;28.25;11.95;;;;;;;-142.75;100.00;77666.88;5002432;28;20353;-67
2022/11/21 04:03:34;;;;;;;33.47;13.05;;;;;;;-142.75;100.00;77657.03;4991572;28;20386;-67
2022/11/21 04:05:59;;;;;;;42.35;13.88;;;;;;;-142.75;100.00;77668.84;4986274;28;20419;-66
2022/11/21 04:08:25;;;;;;;37.42;12.48;;;;;;;-142.75;100.00;77670.81;4990345;28;20063;-67
2022/11/21 04:10:52;;;;;;;41.80;13.02;;;;;;;-142.75;100.00;77672.78;4987562;28;20460;-65
2022/11/21 04:13:18;;;;;;;40.90;13.57;;;;;;;-142.75;100.00;77692.47;4986262;28;20029;-68
2022/11/21 04:15:44;;;;;;;45.30;14.60;;;;;;;-142.75;100.00;77700.34;4980038;28;20017;-67
2022/11/21 04:18:11;;;;;;;36.05;12.90;;;;;;;-142.75;100.00;77704.28;4993440;28;20461;-66
2022/11/21 04:20:37;;;;;;;83.43;13.03;;;;;;;-142.75;100.00;77716.09;4990834;28;20025;-67
2022/11/21 04:23:03;;;;;;;;;;;;;;;-142.75;100.00;77716.09;4995575;28;20025;-67
2022/11/21 04:25:28;;;;;;;56.30;12.37;;;;;;;-142.75;100.00;77727.94;4989768;28;20226;-67
2022/11/21 04:27:58;;;;;;;42.55;12.93;;;;;;;-142.75;100.00;77714.13;4995520;28;20198;-66
2022/11/21 04:30:23;;;;;;;53.20;13.20;;;;;;;-142.75;100.00;77720.03;4990589;28;20546;-67
2022/11/21 04:33:13;;;;;;;50.05;14.65;;;;;;;-142.75;100.00;77729.88;4988473;28;20028;-68
2022/11/21 04:35:39;;;;;;;56.83;14.07;;;;;;;-142.75;100.00;77737.78;4995545;28;20051;-67
2022/11/21 04:38:05;;;;;;;35.53;12.40;;;;;;;-142.75;100.00;77735.81;4995478;28;20279;-67
2022/11/21 04:40:30;;;;;;;44.20;13.20;;;;;;;-142.75;100.00;77729.88;4997531;28;20299;-67
2022/11/21 04:42:56;;;;;;;26.65;12.00;;;;;;;-142.75;100.00;77731.88;4996684;28;20415;-68
2022/11/21 04:45:21;;;;;;;39.90;11.93;;;;;;;-142.75;100.00;77720.03;4981751;28;20424;-65
2022/11/21 04:47:49;;;;;;;41.42;12.10;;;;;;;-142.75;100.00;77716.09;4986529;28;20275;-68
2022/11/21 04:50:16;;;;;;;25.27;11.60;;;;;;;-142.75;100.00;77710.19;5004408;22;20777;-67
2022/11/21 04:52:42;;;;;;;26.20;11.80;;;;;;;-142.75;100.00;77720.03;4979346;28;20044;-67
2022/11/21 04:55:08;;;;;;;30.20;11.82;;;;;;;-142.75;100.00;77714.13;4969879;28;20030;-67
2022/11/21 04:57:34;;;;;;;24.67;11.27;;;;;;;-142.75;100.00;77720.03;4976224;28;20032;-67
2022/11/21 05:00:00;;;;;;;28.17;10.93;;;;;;;-142.75;100.00;77727.94;4976261;28;20033;-68
2022/11/21 05:02:25;;;;;;;22.20;11.55;;;;;;;-142.75;100.00;77712.16;4970670;28;20323;-67
2022/11/21 05:04:51;;;;;;;19.30;11.38;;;;;;;-142.75;100.00;77708.22;4980010;28;20433;-67
2022/11/21 05:07:17;;;;;;;28.00;11.95;;;;;;;-142.75;100.00;77708.22;4963433;28;20347;-67
2022/11/21 05:09:42;;;;;;;26.35;11.55;;;;;;;-142.75;100.00;77716.09;4976754;28;20300;-67
2022/11/21 05:14:53;;;;;;;24.63;12.03;;;;;;;-142.75;100.00;77718.06;4973135;28;20293;-67
2022/11/21 05:17:18;;;;;;;30.38;13.15;;;;;;;-142.75;100.00;77720.03;4974093;28;20302;-67
2022/11/21 05:19:44;;;;;;;22.92;12.18;;;;;;;-142.75;100.00;77712.16;4983779;28;20553;-68
2022/11/21 05:22:09;;;;;;;35.58;12.43;;;;;;;-142.75;100.00;77710.19;4983482;28;20460;-68
2022/11/21 05:24:35;;;;;;;42.67;13.02;;;;;;;-142.75;100.00;77710.19;4967644;28;20350;-67
2022/11/21 05:27:01;;;;;;;33.42;13.18;;;;;;;-142.75;100.00;77708.22;4976033;28;20315;-67
2022/11/21 05:29:26;;;;;;;29.27;13.10;;;;;;;-142.75;100.00;77704.28;4967819;28;20293;-68
2022/11/21 05:31:52;;;;;;;26.27;12.00;;;;;;;-142.75;100.00;77706.25;4974203;28;20296;-68
2022/11/21 05:34:17;;;;;;;24.48;12.52;;;;;;;-142.75;100.00;77702.31;4984156;28;20348;-68
2022/11/21 05:36:43;;;;;;;39.88;12.02;;;;;;;-142.75;100.00;77694.44;4979322;28;20353;-68
2022/11/21 05:39:08;;;;;;;32.13;13.50;;;;;;;-142.75;100.00;77676.72;4968776;28;20436;-67
2022/11/21 05:41:34;;;;;;;41.05;12.43;;;;;;;-142.75;100.00;77674.75;4985225;28;20451;-67
2022/11/21 05:43:59;;;;;;;36.50;13.27;;;;;;;-142.75;100.00;77672.78;4968466;28;20445;-68
2022/11/21 05:46:25;;;;;;;30.65;11.70;;;;;;;-142.75;100.00;77676.72;4978334;28;20328;-67
2022/11/21 05:48:52;;;;;;;48.22;13.60;;;;;;;-142.75;100.00;77659.00;4987649;28;20329;-67
2022/11/21 05:51:19;;;;;;;40.13;12.73;;;;;;;-142.75;100.00;77666.88;4983104;28;20534;-68
2022/11/21 05:53:45;;;;;;;20.23;11.93;;;;;;;-142.75;100.00;77668.84;4977711;28;20076;-67
2022/11/21 05:56:11;;;;;;;;;;;;;;;-142.75;100.00;77659.00;4978639;28;20021;-68
2022/11/21 05:58:37;;;;;;;19.00;11.27;;;;;;;-142.75;100.00;77664.91;4982094;28;20051;-67
2022/11/21 06:01:04;;;;;;;28.02;12.25;;;;;;;-142.75;100.00;77678.69;4968317;28;20731;-68
2022/11/21 06:03:33;;;;;;;22.07;11.93;;;;;;;-142.75;100.00;77672.78;4968253;28;20555;-67
2022/11/21 06:06:01;;;;;;;46.50;11.60;;;;;;;-142.75;100.00;77668.84;4967160;28;20099;-68
2022/11/21 06:08:29;;;;;;;44.83;11.33;;;;;;;-142.75;100.00;77662.94;4982442;28;20040;-67
2022/11/21 06:10:55;;;;;;;24.37;11.23;;;;;;;-142.75;100.00;77660.97;4973409;28;20017;-67
2022/11/21 06:13:23;;;;;;;39.72;12.20;;;;;;;-142.75;100.00;77655.06;4977838;28;20365;-67
2022/11/21 06:16:04;;;;;;;21.97;10.60;;;;;;;-142.75;100.00;77653.09;4977521;28;20021;-67
2022/11/21 06:18:32;;;;;;;18.97;10.73;;;;;;;-142.75;100.00;77660.97;4971761;28;20056;-68
2022/11/21 06:21:06;;;;;;;28.60;10.67;;;;;;;-142.75;100.00;77657.03;4977388;28;20033;-67
2022/11/21 06:23:33;;;;;;;26.27;10.87;;;;;;;-142.75;100.00;77645.22;4978536;28;20053;-68
2022/11/21 06:26:00;;;;;;;22.77;11.07;;;;;;;-142.75;100.00;77637.34;4986077;28;20057;-67
2022/11/21 06:28:28;;;;;;;36.80;11.47;;;;;;;-142.75;100.00;77645.22;4971484;28;20036;-67
2022/11/21 06:30:54;;;;;;;46.97;12.57;;;;;;;-142.75;100.00;77633.41;4946762;28;20029;-67
2022/11/21 06:33:20;;;;;;;49.20;12.85;;;;;;;-142.75;100.00;77645.22;4962189;28;20333;-69
2022/11/21 06:35:45;;;;;;;29.60;10.82;;;;;;;-142.75;100.00;77633.41;4981710;28;20330;-68
2022/11/21 06:38:12;;;;;;;42.00;12.10;;;;;;;-142.75;100.00;77625.53;4986002;28;20384;-69
2022/11/21 06:40:38;;;;;;;34.10;12.07;;;;;;;-142.75;100.00;77615.69;4983362;28;20649;-70
2022/11/21 06:43:03;;;;;;;21.25;11.27;;;;;;;-142.75;100.00;77609.78;4972003;28;20017;-69
2022/11/21 06:45:29;;;;;;;22.38;11.95;;;;;;;-142.75;100.00;77597.97;4976551;28;20206;-69
2022/11/21 06:47:54;;;;;;;21.33;12.70;;;;;;;-142.75;100.00;77601.91;4980119;28;20389;-69
2022/11/21 06:50:20;;;;;;;36.10;12.88;;;;;;;-142.75;100.00;77594.03;4970853;28;20547;-69
2022/11/21 06:52:46;;;;;;;23.63;12.00;;;;;;;-142.75;100.00;77578.28;4985627;28;20152;-68
2022/11/21 06:55:11;;;;;;;30.65;12.70;;;;;;;-142.75;100.00;77558.59;4980465;28;20338;-69
2022/11/21 06:57:37;;;;;;;33.00;13.30;;;;;;;-142.75;100.00;77546.78;4978622;28;20314;-69
2022/11/21 07:00:04;;;;;;;31.60;12.98;;;;;;;-142.75;100.00;77542.84;4985147;28;20106;-69
2022/11/21 07:02:29;;;;;;;29.97;13.50;;;;;;;-142.75;100.00;77534.97;4981354;28;20039;-69
2022/11/21 07:04:55;;;;;;;26.50;13.13;;;;;;;-142.75;100.00;77527.09;4980305;28;20350;-69
2022/11/21 07:07:21;;;;;;;29.90;14.48;;;;;;;-142.75;100.00;77515.28;4978462;28;20330;-68
2022/11/21 07:09:46;;;;;;;24.17;12.93;;;;;;;-142.75;100.00;77503.47;4982813;28;20457;-69
2022/11/21 07:14:56;;;;;;;23.63;13.57;;;;;;;-142.75;100.00;77483.78;4965689;28;20045;-69
2022/11/21 07:17:22;;;;;;;26.90;12.95;;;;;;;-142.75;100.00;77475.91;4965533;28;20255;-69
2022/11/21 07:19:47;;;;;;;36.53;14.93;;;;;;;-142.75;100.00;77462.13;4977310;28;20321;-69
2022/11/21 07:22:13;;;;;;;64.30;24.02;;;;;;;-142.75;100.00;77456.22;4977032;28;20315;-69
2022/11/21 07:24:38;;;;;;;32.53;14.15;;;;;;;-142.75;100.00;77460.13;4974221;28;20029;-68
2022/11/21 07:27:04;;;;;;;29.60;14.88;;;;;;;-142.75;100.00;77462.13;4968787;28;20556;-69
2022/11/21 07:29:29;;;;;;;23.77;13.00;;;;;;;-142.75;100.00;77470.00;4965024;28;20412;-69
2022/11/21 07:31:54;;;;;;;34.47;14.27;;;;;;;-142.75;100.00;77464.09;4965273;28;20385;-69
2022/11/21 07:34:20;;;;;;;30.88;15.45;;;;;;;-142.75;100.00;77462.13;4975432;28;20319;-69
2022/11/21 07:36:45;;;;;;;30.73;12.10;;;;;;;-142.75;100.00;77464.09;4964979;28;20296;-69
2022/11/21 07:39:14;;;;;;;27.90;12.05;;;;;;;-142.75;100.00;77458.16;4963269;28;20458;-69
2022/11/21 07:41:40;;;;;;;25.33;12.70;;;;;;;-142.75;100.00;77464.09;4975218;28;20554;-69
2022/11/21 07:44:05;;;;;;;31.02;11.88;;;;;;;-142.75;100.00;77462.13;4973151;28;20030;-69
2022/11/21 07:46:30;;;;;;;26.98;11.50;;;;;;;-142.75;100.00;77464.09;4964385;28;20124;-70
2022/11/21 07:48:56;;;;;;;39.78;14.48;;;;;;;-142.75;100.00;77458.16;4970723;28;20094;-69
2022/11/21 07:51:21;;;;;;;31.13;11.73;;;;;;;-142.75;100.00;77452.25;4977284;28;20512;-69
2022/11/21 07:53:47;;;;;;;30.27;10.98;;;;;;;-142.75;100.00;77440.44;4971156;28;20063;-70
2022/11/21 07:56:12;;;;;;;24.15;11.25;;;;;;;-142.75;100.00;77424.69;4968917;28;20346;-69
2022/11/21 07:58:38;;;;;;;23.52;12.48;;;;;;;-142.75;100.00;77428.63;4984730;28;20027;-68
2022/11/21 08:01:04;;;;;;;25.73;11.52;;;;;;;-142.75;100.00;77405.00;4969853;28;20355;-69
2022/11/21 08:03:34;;;;;;;68.67;12.03;;;;;;;-142.75;100.00;77405.00;4963406;28;20079;-68
2022/11/21 08:06:03;;;;;;;26.07;12.17;;;;;;;-142.75;100.00;77381.38;4964709;28;20052;-69
2022/11/21 08:08:29;;;;;;;53.90;10.37;;;;;;;-142.75;100.00;77365.63;4970630;28;20202;-69
2022/11/21 08:10:55;;;;;;;36.40;9.35;;;;;;;-142.75;100.00;77355.78;4966600;28;20564;-69
2022/11/21 08:13:20;;;;;;;23.23;10.02;;;;;;;-142.75;100.00;77349.88;4964036;28;20039;-68
2022/11/21 08:15:46;;;;;;;34.25;9.60;;;;;;;-142.75;100.00;77328.22;4972536;28;20331;-68
2022/11/21 08:18:14;;;;;;;23.23;8.00;;;;;;;-142.75;100.00;77312.47;4965514;28;20022;-68
2022/11/21 08:20:40;;;;;;;19.83;8.17;;;;;;;-142.75;100.00;77279.00;4977385;28;20037;-68
2022/11/21 08:23:06;;;;;;;13.65;8.35;;;;;;;-142.75;100.00;77243.56;4972034;28;20307;-68
2022/11/21 08:25:38;;;;;;;17.10;8.70;;;;;;;-142.75;100.00;77210.09;4965480;28;20335;-68
2022/11/21 08:28:05;;;;;;;13.90;9.23;;;;;;;-142.75;100.00;77168.75;4963654;28;20025;-68
2022/11/21 08:30:31;;;;;;;14.37;9.10;;;;;;;-142.75;100.00;77105.75;4973827;28;20040;-68
2022/11/21 08:32:58;;;;;;;13.50;9.43;;;;;;;-142.75;100.00;77042.75;4970952;28;20061;-68
2022/11/21 08:35:24;;;;;;;17.02;10.20;;;;;;;-142.75;100.00;76999.44;4984201;28;20603;-68
2022/11/21 08:37:56;;;;;;;15.20;9.40;;;;;;;-142.75;100.00;76969.91;4972410;28;20842;-69
2022/11/21 08:40:22;;;;;;;15.07;8.10;;;;;;;-142.75;100.00;76928.56;4977719;28;20059;-69
2022/11/21 08:42:47;;;;;;;22.50;13.82;;;;;;;-142.75;100.00;76889.19;4964300;28;20542;-68
2022/11/21 08:45:13;;;;;;;13.70;8.20;;;;;;;-142.75;100.00;76839.97;4976266;28;20099;-68
2022/11/21 08:47:38;;;;;;;13.77;6.22;;;;;;;-142.75;100.00;76812.41;4971022;28;20068;-68
2022/11/21 08:50:04;;;;;;;8.65;4.95;;;;;;;-142.75;100.00;76790.78;4964256;28;20033;-68
2022/11/21 08:52:30;;;;;;;8.77;4.97;;;;;;;-142.75;100.00;76757.31;4982547;28;20033;-68
2022/11/21 08:54:56;;;;;;;9.23;4.90;;;;;;;-142.75;100.00;76715.97;4959886;28;20368;-68
2022/11/21 08:57:21;;;;;;;;;;;;;;;-142.75;100.00;76698.25;4980078;28;20029;-68
2022/11/21 08:59:46;;;;;;;6.85;4.10;;;;;;;-142.75;100.00;76721.88;4968048;28;20364;-68
2022/11/21 09:02:12;;;;;;;9.02;3.95;;;;;;;-142.75;100.00;76692.34;4977369;28;20392;-68
2022/11/21 09:04:37;;;;;;;6.55;4.07;;;;;;;-142.75;100.00;76672.66;4963714;28;20299;-70
2022/11/21 09:07:03;;;;;;;14.75;3.83;;;;;;;-142.75;100.00;76662.81;4983148;28;20450;-68
2022/11/21 09:09:29;;;;;;;8.15;4.28;;;;;;;-142.75;100.00;76621.47;5023243;28;20021;-70
2022/11/21 09:11:54;;;;;;;10.10;3.85;;;;;;;-142.75;100.00;76605.72;5023983;28;20025;-68
2022/11/21 09:19:47;;;;;;;5.68;2.95;;;;;;;-142.75;100.00;76582.09;5023768;28;20152;-68
2022/11/21 09:22:12;;;;;;;8.20;2.85;;;;;;;-142.75;100.00;76521.09;5023599;28;20033;-68
2022/11/21 09:24:38;;;;;;;6.43;3.05;;;;;;;-142.75;100.00;76505.34;5023665;28;20029;-68
2022/11/21 09:27:03;;;;;;;7.22;2.97;;;;;;;-142.75;100.00;76550.59;5022837;28;20029;-67
2022/11/21 09:29:28;;;;;;;6.05;3.08;;;;;;;-142.75;100.00;76505.34;5021994;28;20017;-68
2022/11/21 09:31:53;;;;;;;12.75;3.40;;;;;;;-142.75;100.00;76456.13;5023762;28;20114;-69
2022/11/21 09:34:19;;;;;;;10.35;2.75;;;;;;;-142.75;100.00;76422.66;5023728;28;20035;-68
2022/11/21 09:36:44;;;;;;;9.70;2.85;;;;;;;-142.75;100.00;76432.50;5020959;28;20025;-68
2022/11/21 09:39:09;;;;;;;5.80;3.13;;;;;;;-142.75;100.00;76420.69;5023333;28;20649;-68
2022/11/21 09:41:52;;;;;;;8.77;3.50;;;;;;;-142.75;100.00;76416.75;5023425;28;20025;-68
2022/11/21 09:44:32;;;;;;;15.43;3.97;;;;;;;-142.75;100.00;76481.72;5023198;28;20116;-69
2022/11/21 09:47:25;;;;;;;7.20;2.95;;;;;;;-142.75;100.00;76517.16;5021404;28;20104;-69
2022/11/21 09:50:05;;;;;;;12.02;3.38;;;;;;;-142.75;100.00;76521.09;5023015;28;20056;-68
2022/11/21 09:52:39;;;;;;;9.68;3.03;;;;;;;-142.75;100.00;76544.69;5023128;28;20609;-68
2022/11/21 09:55:16;;;;;;;9.80;2.97;;;;;;;-142.75;100.00;76538.78;5023189;28;20071;-68
2022/11/21 09:57:41;;;;;;;8.98;2.92;;;;;;;-142.75;100.00;76558.47;5021613;28;20025;-69
2022/11/21 10:00:19;;;;;;;11.40;3.28;;;;;;;-142.75;100.00;76588.00;5022061;28;20434;-67
2022/11/21 10:02:44;;;;;;;7.90;3.33;;;;;;;-142.75;100.00;76582.09;5022441;28;20030;-68
2022/11/21 10:05:14;;;;;;;7.30;3.10;;;;;;;-142.75;100.00;76582.09;5022289;28;20040;-69
2022/11/21 10:07:41;;;;;;;8.48;3.95;;;;;;;-142.75;100.00;76566.34;5022361;28;20025;-67
2022/11/21 10:10:18;;;;;;;7.65;3.25;;;;;;;-142.75;100.00;76599.81;5021814;28;20026;-68
2022/11/21 10:13:11;;;;;;;8.30;3.00;;;;;;;-142.75;100.00;76593.91;5022955;28;20052;-68
2022/11/21 10:15:49;;;;;;;13.48;4.40;;;;;;;-142.75;100.00;76627.38;5021456;28;20026;-68
2022/11/21 10:18:17;;;;;;;11.32;3.85;;;;;;;-142.75;100.00;76574.22;5020562;28;20053;-67
2022/11/21 10:20:55;;;;;;;11.23;4.18;;;;;;;-142.75;100.00;76570.28;5022423;28;20029;-67
2022/11/21 10:23:50;;;;;;;11.77;4.18;;;;;;;-142.75;100.00;76586.03;5022433;28;20025;-67
2022/11/21 10:26:18;;;;;;;17.02;4.15;;;;;;;-142.75;100.00;76560.44;5013988;28;20107;-68
2022/11/21 10:29:08;;;;;;;10.13;4.10;;;;;;;-142.75;100.00;76564.38;5021922;28;20475;-68
2022/11/21 10:31:38;;;;;;;12.40;4.25;;;;;;;-142.75;100.00;76532.88;5022128;28;20106;-68
2022/11/21 10:34:19;;;;;;;12.55;4.60;;;;;;;-142.75;100.00;76499.44;5022299;28;20018;-66
2022/11/21 10:36:49;;;;;;;10.63;4.30;;;;;;;-142.75;100.00;76491.56;5021329;28;20052;-67
2022/11/21 10:39:41;;;;;;;10.88;5.07;;;;;;;-142.75;100.00;76477.78;5022047;28;20463;-67
2022/11/21 10:42:39;;;;;;;8.35;4.68;;;;;;;-142.75;100.00;76530.91;5014032;28;20554;-67
2022/11/21 10:45:17;;;;;;;9.73;3.72;;;;;;;-142.75;100.00;76586.03;5022239;28;20028;-68
2022/11/21 10:47:44;;;;;;;13.80;4.18;;;;;;;-142.75;100.00;76578.16;5021493;28;20029;-68
2022/11/21 10:50:38;;;;;;;12.20;4.60;;;;;;;-142.75;100.00;76558.47;5038462;23;20005;-68
2022/11/21 10:56:08;;;;;;;13.95;5.70;;;;;;;-142.75;100.00;76509.28;5022634;28;20040;-69
2022/11/21 10:58:45;;;;;;;9.30;4.20;;;;;;;-142.75;100.00;76505.34;5021185;28;20028;-68
2022/11/21 11:01:26;;;;;;;9.35;4.18;;;;;;;-142.75;100.00;76477.78;5020407;28;20032;-68
2022/11/21 11:04:07;;;;;;;10.10;3.85;;;;;;;-142.75;100.00;76444.31;5011293;28;20152;-68
2022/11/21 11:06:33;;;;;;;11.38;3.97;;;;;;;-142.75;100.00;76408.88;5001701;28;20482;-67
2022/11/21 11:08:58;;;;;;;13.90;3.97;;;;;;;-142.75;100.00;76426.59;5020410;28;20025;-68
2022/11/21 11:11:26;;;;;;;12.68;4.55;;;;;;;-142.75;100.00;76383.28;5020068;28;20067;-67
2022/11/21 11:13:56;;;;;;;9.15;4.25;;;;;;;-142.75;100.00;76371.47;5002036;28;20030;-70